createdAt,value
2023-03-10T07:58:37.605Z,100593
2023-03-10T07:59:38.589Z,100618.5
2023-03-10T08:00:44.231Z,100613.89
2023-03-10T08:01:38.632Z,100611.03
2023-03-10T08:02:37.822Z,100610.21
2023-03-10T08:03:37.715Z,100614.54
2023-03-10T08:04:40.038Z,100621.51
2023-03-10T08:05:39.696Z,100606.47
2023-03-10T08:06:37.586Z,100643.54
2023-03-10T08:07:38.675Z,100653.23
2023-03-10T08:08:37.727Z,100673.29
2023-03-10T08:09:38.605Z,100689.82
2023-03-10T08:10:38.713Z,100711.54
2023-03-10T08:11:37.635Z,100716.91
2023-03-10T08:12:37.721Z,100726.42
2023-03-10T08:13:38.609Z,100723.01
2023-03-10T08:14:38.748Z,100724.95
2023-03-10T08:15:39.666Z,100720.57
2023-03-10T08:16:37.628Z,100719.4
2023-03-10T08:17:37.558Z,100713.6
2023-03-10T08:18:38.633Z,100713.28
2023-03-10T08:19:38.643Z,100705.87
2023-03-10T08:20:37.549Z,100703.57
2023-03-10T08:21:38.456Z,100705.33
2023-03-10T08:22:38.577Z,100712.18
2023-03-10T08:23:37.507Z,100706.52
2023-03-10T08:24:37.487Z,100685.04
2023-03-10T08:25:37.547Z,100669.19
2023-03-10T08:26:39.529Z,100663.59
2023-03-10T08:27:37.490Z,100643.24
2023-03-10T08:28:38.428Z,100629.64
2023-03-10T08:29:37.338Z,100623.57
2023-03-10T08:30:39.886Z,100612.03
2023-03-10T08:31:39.414Z,100603.26
2023-03-10T08:32:39.391Z,100592.93
2023-03-10T08:33:39.442Z,100599.64
2023-03-10T08:34:39.774Z,100591.19
2023-03-10T08:35:41.117Z,100577.5
2023-03-10T08:36:37.382Z,100566.25
2023-03-10T08:37:38.367Z,100548.21
2023-03-10T08:38:39.299Z,100510.89
2023-03-10T08:39:37.224Z,100515.59
